Time;durP1;ratioP1;P1;durP2;ratioP2;P2;SDS_P1;SDS_P2;PMS_P1;PMS_P2;Temp;Humidity;BMP_temperature;BMP_pressure;BME280_temperature;BME280_humidity;BME280_pressure;Samples;Min_cycle;Max_cycle;Signal;HPM_P1;HPM_P2
2021/12/25 00:01:45;;;;;;;30.83;12.90;;;;;;;8.48;100.00;96771.84;5073682;28;20036;-57
2021/12/25 00:04:10;;;;;;;84.90;29.40;;;;;;;8.65;100.00;96771.78;5078514;28;20030;-57
2021/12/25 00:06:37;;;;;;;25.90;12.52;;;;;;;8.46;100.00;96781.50;5075781;28;20055;-57
2021/12/25 00:09:04;;;;;;;29.90;12.75;;;;;;;8.39;100.00;96775.72;5075359;28;20028;-58
2021/12/25 00:11:29;;;;;;;27.52;12.80;;;;;;;8.37;100.00;96769.78;5075478;28;20122;-56
2021/12/25 00:13:55;;;;;;;20.00;10.00;;;;;;;8.20;100.00;96778.44;5075612;28;20486;-56
2021/12/25 00:16:20;;;;;;;15.55;7.80;;;;;;;8.56;100.00;96767.09;5079616;28;20063;-57
2021/12/25 00:18:46;;;;;;;18.85;9.13;;;;;;;8.67;100.00;96767.38;5058695;28;21227;-57
2021/12/25 00:21:12;;;;;;;16.50;8.10;;;;;;;8.36;100.00;96775.06;5076302;28;20996;-59
2021/12/25 00:23:38;;;;;;;25.48;11.73;;;;;;;8.21;100.00;96779.28;5080866;28;20725;-56
2021/12/25 00:26:12;;;;;;;14.48;6.90;;;;;;;8.96;100.00;96767.56;5081802;28;20916;-54
2021/12/25 00:33:53;;;;;;;16.92;7.97;;;;;;;8.81;100.00;96763.19;5076624;28;20031;-55
2021/12/25 00:36:21;;;;;;;16.77;7.35;;;;;;;8.52;100.00;96773.38;5075310;28;20750;-55
2021/12/25 00:38:48;;;;;;;15.13;7.18;;;;;;;8.72;100.00;96763.69;5074379;28;20035;-55
2021/12/25 00:41:16;;;;;;;11.93;6.97;;;;;;;8.44;100.00;96770.34;5079050;28;21001;-55
2021/12/25 00:43:42;;;;;;;11.98;6.85;;;;;;;8.58;100.00;96769.59;5079611;28;20060;-55
2021/12/25 00:46:08;;;;;;;15.10;7.70;;;;;;;8.54;100.00;96768.94;5078056;28;20040;-57
2021/12/25 00:48:34;;;;;;;11.80;6.60;;;;;;;8.54;100.00;96774.13;5078861;28;20078;-55
2021/12/25 00:51:00;;;;;;;12.13;6.45;;;;;;;8.60;100.00;96766.03;5080457;28;20032;-55
2021/12/25 00:53:25;;;;;;;12.90;6.63;;;;;;;8.57;100.00;96767.94;5062483;28;20042;-54
2021/12/25 00:55:51;;;;;;;16.52;6.93;;;;;;;8.51;100.00;96771.72;5062150;28;20040;-55
2021/12/25 00:58:16;;;;;;;17.67;6.60;;;;;;;8.55;100.00;96769.78;5080251;28;20131;-55
2021/12/25 01:00:43;;;;;;;12.30;6.95;;;;;;;8.68;100.00;96768.22;5081614;28;20042;-55
2021/12/25 01:03:08;;;;;;;9.55;5.20;;;;;;;8.71;100.00;96767.19;5083745;28;20035;-55
2021/12/25 01:05:33;;;;;;;12.50;6.00;;;;;;;8.56;100.00;96764.50;5078700;28;20051;-55
2021/12/25 01:07:59;;;;;;;11.80;6.47;;;;;;;8.55;100.00;96762.81;5080884;28;20120;-57
2021/12/25 01:10:25;;;;;;;10.27;5.47;;;;;;;9.06;100.00;96763.56;5079457;28;20039;-55
2021/12/25 01:15:27;;;;;;;11.40;6.20;;;;;;;8.67;100.00;96767.38;5077350;28;20059;-55
2021/12/25 01:20:44;;;;;;;12.10;6.13;;;;;;;8.42;100.00;96774.78;5078000;28;20683;-57
2021/12/25 01:29:16;;;;;;;15.02;7.03;;;;;;;8.54;100.00;96770.69;5079735;28;20043;-57
2021/12/25 01:31:18;;;;;;;11.25;6.00;;;;;;;8.48;100.00;96772.69;5071233;28;20205;-56
2021/12/25 01:39:20;;;;;;;11.40;6.18;;;;;;;8.11;100.00;96779.75;5080029;28;20029;-56
2021/12/25 01:50:11;;;;;;;13.40;6.20;;;;;;;8.21;100.00;96777.50;5077658;28;20513;-58
2021/12/25 01:52:37;;;;;;;10.82;5.78;;;;;;;8.58;100.00;96780.84;5082178;28;20032;-55
2021/12/25 01:55:13;;;;;;;11.20;6.10;;;;;;;8.26;100.00;96783.31;5083869;28;20156;-55
2021/12/25 01:57:40;;;;;;;12.18;6.30;;;;;;;8.57;100.00;96783.53;5085859;28;20031;-55
2021/12/25 02:00:11;;;;;;;12.55;5.68;;;;;;;8.67;100.00;96772.59;5079009;28;20040;-55
2021/12/25 02:02:36;;;;;;;14.15;6.75;;;;;;;8.36;100.00;96777.66;5079260;28;20414;-55
2021/12/25 02:05:02;;;;;;;14.85;7.00;;;;;;;8.38;100.00;96771.47;5079209;28;20057;-56
2021/12/25 02:07:28;;;;;;;12.88;6.18;;;;;;;8.26;100.00;96775.53;5081849;28;20836;-55
2021/12/25 02:09:53;;;;;;;14.10;6.63;;;;;;;8.33;100.00;96764.84;5084909;28;20072;-56
2021/12/25 02:12:18;;;;;;;16.77;6.70;;;;;;;8.24;100.00;96768.75;5081293;28;20958;-55
2021/12/25 02:14:46;;;;;;;12.55;6.50;;;;;;;8.20;100.00;96768.06;5082803;28;20012;-54
2021/12/25 02:17:25;;;;;;;13.48;6.95;;;;;;;8.18;100.00;96763.84;5092098;27;20406;-58
2021/12/25 02:20:14;;;;;;;13.05;6.93;;;;;;;8.25;100.00;96773.88;5082458;28;20495;-59
2021/12/25 02:22:40;;;;;;;14.43;6.53;;;;;;;8.25;100.00;96773.00;5081569;28;20064;-57
2021/12/25 02:25:06;;;;;;;16.73;6.95;;;;;;;8.05;100.00;96780.06;5082741;28;20022;-55
2021/12/25 02:27:32;;;;;;;15.75;7.15;;;;;;;7.88;100.00;96773.13;5081706;28;20481;-55
2021/12/25 02:29:57;;;;;;;68.55;7.90;;;;;;;7.56;100.00;96766.91;5076702;28;20031;-57
2021/12/25 02:32:23;;;;;;;16.27;6.53;;;;;;;7.62;100.00;96765.78;5094699;27;20075;-57
2021/12/25 02:34:49;;;;;;;21.00;6.15;;;;;;;7.66;100.00;96767.28;5079221;28;20457;-57
2021/12/25 02:37:15;;;;;;;30.40;6.38;;;;;;;7.63;100.00;96759.69;5079516;28;20067;-54
2021/12/25 02:39:40;;;;;;;87.63;7.68;;;;;;;7.16;100.00;96773.16;5082468;28;20187;-57
2021/12/25 02:42:06;;;;;;;96.88;8.18;;;;;;;7.37;100.00;96761.78;5083662;28;20040;-56
2021/12/25 02:44:31;;;;;;;59.00;6.70;;;;;;;7.66;100.00;96751.72;5074399;28;20048;-57
2021/12/25 02:46:59;;;;;;;15.40;6.72;;;;;;;7.43;100.00;96761.47;5079689;28;20536;-56
2021/12/25 02:49:24;;;;;;;54.05;7.00;;;;;;;7.32;100.00;96755.97;5080577;28;20032;-56
2021/12/25 02:51:52;;;;;;;16.00;7.15;;;;;;;7.67;100.00;96748.22;5099683;27;20090;-55
2021/12/25 02:54:17;;;;;;;18.80;7.80;;;;;;;7.93;100.00;96751.28;5082649;28;20023;-57
2021/12/25 02:56:43;;;;;;;24.50;7.78;;;;;;;8.02;100.00;96753.41;5078663;28;20039;-56
2021/12/25 02:59:15;;;;;;;29.65;8.88;;;;;;;8.10;100.00;96757.31;5083326;28;20049;-55
2021/12/25 03:01:41;;;;;;;;;;;;;;;7.96;100.00;96764.09;5080675;28;20409;-56
2021/12/25 03:04:06;;;;;;;26.30;7.85;;;;;;;7.90;100.00;96760.91;5086285;28;20911;-55
2021/12/25 03:06:36;;;;;;;13.77;6.55;;;;;;;8.11;100.00;96758.13;5079411;28;20120;-56
2021/12/25 03:09:06;;;;;;;18.00;7.50;;;;;;;8.21;100.00;96753.31;5081227;28;20646;-58
2021/12/25 03:11:33;;;;;;;16.13;7.25;;;;;;;8.19;100.00;96750.78;5076378;28;20051;-56
2021/12/25 03:14:11;;;;;;;14.60;6.78;;;;;;;7.65;100.00;96740.50;5080827;28;20053;-56
2021/12/25 03:16:36;;;;;;;19.00;7.20;;;;;;;7.85;100.00;96734.34;5077905;28;20097;-55
2021/12/25 03:19:03;;;;;;;17.90;7.20;;;;;;;7.79;100.00;96734.63;5082378;28;20031;-55
2021/12/25 03:21:28;;;;;;;14.30;7.00;;;;;;;7.69;100.00;96739.44;5094001;27;20043;-57
2021/12/25 03:23:54;;;;;;;15.27;7.43;;;;;;;7.73;100.00;96743.56;5081462;28;20419;-57
2021/12/25 03:26:20;;;;;;;21.08;7.28;;;;;;;7.50;100.00;96736.09;5082435;28;20538;-55
2021/12/25 03:28:46;;;;;;;418.20;13.73;;;;;;;7.01;100.00;96734.06;5079270;28;20089;-56
2021/12/25 03:31:19;;;;;;;217.93;11.30;;;;;;;7.07;100.00;96738.13;5079080;28;20705;-56
2021/12/25 03:33:49;;;;;;;41.08;7.05;;;;;;;7.34;100.00;96738.56;5081334;28;20138;-54
2021/12/25 03:36:15;;;;;;;14.20;6.65;;;;;;;7.55;100.00;96728.06;5080219;28;20040;-57
2021/12/25 03:38:42;;;;;;;14.52;7.03;;;;;;;7.53;100.00;96731.59;5082987;28;20028;-57
2021/12/25 03:41:09;;;;;;;23.80;7.57;;;;;;;7.43;100.00;96727.75;5078754;28;20057;-55
2021/12/25 03:43:39;;;;;;;133.27;9.35;;;;;;;7.29;100.00;96738.78;5081305;28;20024;-56
2021/12/25 03:46:06;;;;;;;20.20;7.22;;;;;;;7.50;100.00;96734.31;5077490;28;20040;-55
2021/12/25 03:48:56;;;;;;;18.88;7.90;;;;;;;7.71;100.00;96729.81;5081685;28;20020;-56
2021/12/25 03:59:38;;;;;;;19.25;7.75;;;;;;;7.65;100.00;96722.34;5076695;28;20047;-55
2021/12/25 04:02:13;;;;;;;23.45;8.98;;;;;;;7.79;100.00;96720.81;5077382;28;20032;-56
2021/12/25 04:04:43;;;;;;;17.20;8.15;;;;;;;7.89;100.00;96716.84;5076785;28;20035;-56
2021/12/25 04:10:10;;;;;;;23.98;7.30;;;;;;;7.45;100.00;96731.09;5055528;28;20502;-54
2021/12/25 04:12:35;;;;;;;20.65;7.93;;;;;;;7.80;100.00;96728.53;5075400;28;20035;-55
2021/12/25 04:15:00;;;;;;;15.73;6.97;;;;;;;7.90;100.00;96721.97;5076712;28;20457;-56
2021/12/25 04:17:26;;;;;;;16.73;6.72;;;;;;;7.71;100.00;96721.19;5079258;28;20031;-56
2021/12/25 04:19:51;;;;;;;19.90;7.25;;;;;;;7.76;100.00;96726.19;5076924;28;20458;-57
2021/12/25 04:22:24;;;;;;;40.60;7.75;;;;;;;7.75;100.00;96717.53;5078047;28;20447;-57
2021/12/25 04:24:51;;;;;;;42.85;7.93;;;;;;;7.53;100.00;96721.22;5084048;28;20039;-54
2021/12/25 04:27:17;;;;;;;21.58;7.57;;;;;;;7.55;100.00;96721.13;5096915;27;20037;-56
2021/12/25 04:29:52;;;;;;;19.73;7.90;;;;;;;7.73;100.00;96719.38;5078237;28;20027;-55
2021/12/25 04:49:14;;;;;;;64.00;8.57;;;;;;;7.29;100.00;96722.38;5079813;28;20073;-57
2021/12/25 05:02:50;;;;;;;20.83;7.95;;;;;;;7.64;100.00;96707.69;5079515;28;20051;-56
2021/12/25 05:05:18;;;;;;;33.72;10.40;;;;;;;7.86;100.00;96706.59;5076782;28;20107;-56
2021/12/25 05:07:44;;;;;;;19.63;8.23;;;;;;;7.85;100.00;96712.72;5086029;28;20111;-56
2021/12/25 05:10:09;;;;;;;20.35;7.90;;;;;;;7.63;100.00;96705.19;5083857;28;20114;-57
2021/12/25 05:12:35;;;;;;;16.55;7.32;;;;;;;7.75;100.00;96704.56;5084368;28;20077;-56
2021/12/25 05:15:00;;;;;;;18.75;7.50;;;;;;;7.77;100.00;96707.91;5084588;28;20138;-57
2021/12/25 05:17:26;;;;;;;21.83;7.10;;;;;;;7.75;100.00;96704.56;5084866;28;20031;-57
2021/12/25 05:19:51;;;;;;;16.77;7.18;;;;;;;7.82;100.00;96711.13;5086492;28;20035;-55
2021/12/25 05:22:18;;;;;;;18.00;7.18;;;;;;;7.94;100.00;96708.81;5085402;28;20035;-57
2021/12/25 05:24:44;;;;;;;23.40;7.38;;;;;;;7.74;100.00;96708.09;5086665;27;20035;-55
2021/12/25 05:27:12;;;;;;;15.38;6.60;;;;;;;7.67;100.00;96709.31;5082042;28;20040;-56
2021/12/25 05:29:38;;;;;;;10.68;4.90;;;;;;;7.57;100.00;96723.63;5080978;28;20032;-55
2021/12/25 05:32:03;;;;;;;46.80;6.60;;;;;;;7.68;100.00;96727.41;5086853;27;20039;-56
2021/12/25 05:34:29;;;;;;;17.92;6.72;;;;;;;7.82;100.00;96737.06;5089694;28;20036;-58
2021/12/25 05:36:54;;;;;;;22.38;6.70;;;;;;;7.90;100.00;96734.09;5082043;28;20032;-56
2021/12/25 05:39:20;;;;;;;51.35;6.05;;;;;;;7.58;100.00;96733.94;5083997;28;20123;-56
2021/12/25 05:41:46;;;;;;;241.63;9.32;;;;;;;7.50;100.00;96731.72;5080333;28;20031;-58
2021/12/25 05:44:11;;;;;;;111.68;6.68;;;;;;;7.61;100.00;96732.94;5082141;28;20024;-56
2021/12/25 05:46:36;;;;;;;14.40;5.72;;;;;;;7.91;100.00;96736.59;5082713;27;20048;-56
2021/12/25 05:49:02;;;;;;;15.15;6.35;;;;;;;8.03;100.00;96739.50;5083373;28;20103;-56
2021/12/25 05:51:27;;;;;;;94.00;8.73;;;;;;;7.93;100.00;96733.09;5083514;28;20031;-56
2021/12/25 05:53:53;;;;;;;47.33;8.52;;;;;;;7.93;100.00;96735.72;5084255;28;20061;-56
2021/12/25 05:56:18;;;;;;;18.67;6.45;;;;;;;7.96;100.00;96738.13;5086875;27;20070;-55
2021/12/25 05:58:44;;;;;;;26.27;8.15;;;;;;;7.89;100.00;96735.84;5084440;28;20061;-56
2021/12/25 06:01:11;;;;;;;34.03;7.82;;;;;;;7.74;100.00;96734.03;5081476;27;20028;-59
2021/12/25 06:03:37;;;;;;;62.40;8.10;;;;;;;7.72;100.00;96741.91;5085592;28;20744;-56
2021/12/25 06:06:02;;;;;;;20.42;6.97;;;;;;;7.87;100.00;96740.28;5086403;27;20043;-59
2021/12/25 06:08:28;;;;;;;56.00;7.35;;;;;;;7.78;100.00;96740.75;5086795;28;20036;-56
2021/12/25 06:10:53;;;;;;;19.40;6.43;;;;;;;7.90;100.00;96744.47;5084875;27;20709;-56
2021/12/25 06:13:21;;;;;;;22.20;7.47;;;;;;;7.67;100.00;96750.81;5083187;28;20028;-56
2021/12/25 06:15:47;;;;;;;31.35;8.10;;;;;;;7.72;100.00;96752.28;5084821;28;20036;-57
2021/12/25 06:18:13;;;;;;;27.67;7.82;;;;;;;7.73;100.00;96758.28;5082514;28;20037;-55
2021/12/25 06:20:39;;;;;;;17.23;7.05;;;;;;;7.72;100.00;96741.91;5081155;28;20401;-56
2021/12/25 06:23:05;;;;;;;19.58;7.15;;;;;;;7.46;100.00;96724.16;5080225;28;20491;-59
2021/12/25 06:25:30;;;;;;;24.63;7.03;;;;;;;7.52;100.00;96719.53;5097241;27;20590;-56
2021/12/25 06:27:56;;;;;;;23.13;7.63;;;;;;;7.60;100.00;96723.50;5077131;28;20028;-56
2021/12/25 06:30:21;;;;;;;20.20;6.45;;;;;;;7.56;100.00;96725.41;5081301;28;20732;-57
2021/12/25 06:32:47;;;;;;;17.45;6.72;;;;;;;7.27;100.00;96729.41;5078038;28;20028;-56
2021/12/25 06:35:12;;;;;;;38.92;7.00;;;;;;;7.32;100.00;96732.63;5078695;28;20021;-57
2021/12/25 06:37:45;;;;;;;21.58;7.30;;;;;;;7.62;100.00;96730.28;5097692;27;20393;-57
2021/12/25 06:40:12;;;;;;;26.20;8.63;;;;;;;7.61;100.00;96732.94;5082366;28;20082;-58
2021/12/25 06:42:38;;;;;;;29.20;10.02;;;;;;;7.62;100.00;96734.63;5084160;28;20049;-56
2021/12/25 06:45:04;;;;;;;23.48;8.13;;;;;;;7.61;100.00;96732.94;5079713;27;20040;-57
2021/12/25 06:47:30;;;;;;;31.90;8.10;;;;;;;7.65;100.00;96734.50;5080970;28;20032;-57
2021/12/25 06:49:55;;;;;;;36.33;6.75;;;;;;;7.45;100.00;96738.91;5067566;28;20023;-57
2021/12/25 06:52:21;;;;;;;52.50;7.88;;;;;;;7.34;100.00;96743.75;5084661;28;20035;-58
2021/12/25 06:54:46;;;;;;;82.20;8.02;;;;;;;7.42;100.00;96744.22;5082272;28;20681;-56
2021/12/25 06:57:11;;;;;;;22.27;8.55;;;;;;;7.72;100.00;96730.69;5082224;28;20043;-58
2021/12/25 06:59:37;;;;;;;19.80;7.38;;;;;;;7.53;100.00;96733.31;5083148;28;20154;-57
2021/12/25 07:02:02;;;;;;;35.60;8.15;;;;;;;7.30;100.00;96734.47;5081547;28;20119;-57
2021/12/25 07:04:28;;;;;;;32.58;7.18;;;;;;;7.59;100.00;96729.59;5082673;28;20047;-57
2021/12/25 07:06:53;;;;;;;21.20;7.47;;;;;;;7.43;100.00;96732.94;5081464;27;20094;-56
2021/12/25 07:09:19;;;;;;;22.73;6.50;;;;;;;7.43;100.00;96735.53;5084282;28;20519;-57
2021/12/25 07:11:44;;;;;;;44.95;6.28;;;;;;;7.33;100.00;96735.16;5074664;28;20040;-56
2021/12/25 07:14:11;;;;;;;337.48;9.13;;;;;;;7.25;100.00;96729.47;5078733;28;20098;-57
2021/12/25 07:16:38;;;;;;;175.40;6.32;;;;;;;7.35;100.00;96732.47;5085298;28;20127;-59
2021/12/25 07:19:04;;;;;;;67.80;6.43;;;;;;;7.39;100.00;96728.81;5082756;28;20879;-56
2021/12/25 07:21:30;;;;;;;117.40;7.53;;;;;;;7.50;100.00;96733.50;5075571;28;20048;-55
2021/12/25 07:23:55;;;;;;;61.63;6.32;;;;;;;7.58;100.00;96733.13;5083637;28;20024;-57
2021/12/25 07:26:21;;;;;;;23.23;7.05;;;;;;;7.65;100.00;96737.91;5080612;27;20059;-55
2021/12/25 07:28:47;;;;;;;20.05;7.88;;;;;;;7.59;100.00;96746.03;5080041;28;20025;-56
2021/12/25 07:31:12;;;;;;;18.63;7.50;;;;;;;7.27;100.00;96750.16;5075701;28;20257;-55
2021/12/25 07:33:40;;;;;;;18.80;7.15;;;;;;;7.55;100.00;96743.63;5079432;28;20135;-57
2021/12/25 07:36:08;;;;;;;20.20;7.05;;;;;;;7.39;100.00;96753.91;5079708;28;20036;-57
2021/12/25 07:38:34;;;;;;;15.90;6.95;;;;;;;7.50;100.00;96752.50;5080256;28;20016;-56
2021/12/25 07:40:59;;;;;;;39.05;6.95;;;;;;;7.44;100.00;96752.75;5077980;28;20043;-55
2021/12/25 07:43:25;;;;;;;20.38;6.78;;;;;;;7.21;100.00;96761.66;5082590;28;20074;-55
2021/12/25 07:45:52;;;;;;;12.80;4.88;;;;;;;6.68;100.00;96771.00;5085059;28;20081;-55
2021/12/25 07:48:19;;;;;;;9.98;4.00;;;;;;;6.43;100.00;96767.81;5077401;28;20024;-56
2021/12/25 07:50:46;;;;;;;9.82;4.20;;;;;;;5.90;100.00;96770.03;5092752;27;20755;-55
2021/12/25 07:53:12;;;;;;;12.40;4.28;;;;;;;6.04;100.00;96769.47;5078748;28;20032;-55
2021/12/25 07:55:37;;;;;;;10.50;3.63;;;;;;;5.84;100.00;96772.88;5079045;28;20395;-55
2021/12/25 07:58:03;;;;;;;9.40;4.05;;;;;;;5.47;100.00;96776.97;5076917;28;20700;-55
2021/12/25 08:00:29;;;;;;;8.05;3.60;;;;;;;5.27;100.00;96775.16;5079625;28;20046;-55
2021/12/25 08:02:54;;;;;;;7.80;3.33;;;;;;;4.99;100.00;96780.56;5077405;28;20536;-55
2021/12/25 08:05:20;;;;;;;9.77;3.55;;;;;;;4.83;100.00;96781.16;5078513;28;20090;-54
2021/12/25 08:07:46;;;;;;;9.55;3.78;;;;;;;4.81;100.00;96788.09;5072405;28;20820;-56
2021/12/25 08:10:18;;;;;;;8.93;3.50;;;;;;;4.88;100.00;96793.91;5074505;28;20154;-56
2021/12/25 08:12:47;;;;;;;8.40;3.40;;;;;;;5.00;100.00;96808.13;5071151;28;20142;-54
2021/12/25 08:15:14;;;;;;;10.93;3.53;;;;;;;4.97;100.00;96803.88;5090342;27;20032;-55
2021/12/25 08:17:40;;;;;;;8.77;3.58;;;;;;;4.73;100.00;96800.47;5079757;28;20080;-55
2021/12/25 08:20:07;;;;;;;10.00;3.40;;;;;;;4.75;100.00;96806.44;5084173;28;20560;-57
2021/12/25 08:22:32;;;;;;;8.18;3.40;;;;;;;4.80;100.00;96798.53;5085197;28;20493;-54
2021/12/25 08:24:57;;;;;;;9.90;3.72;;;;;;;4.87;100.00;96797.41;5080634;28;20072;-57
2021/12/25 08:27:23;;;;;;;7.78;3.10;;;;;;;4.76;100.00;96795.22;5078315;28;20573;-54
2021/12/25 08:29:49;;;;;;;8.23;3.30;;;;;;;5.09;100.00;96797.44;5081674;28;20016;-55
2021/12/25 08:32:14;;;;;;;9.27;3.35;;;;;;;5.10;100.00;96799.09;5063145;28;20040;-59
2021/12/25 08:34:40;;;;;;;10.32;3.38;;;;;;;5.13;100.00;96803.31;5045554;28;20081;-54
2021/12/25 08:37:06;;;;;;;9.50;3.47;;;;;;;5.22;100.00;96808.97;5077233;28;20040;-54
2021/12/25 08:39:31;;;;;;;9.25;3.55;;;;;;;5.21;100.00;96806.44;5079995;28;20020;-55
2021/12/25 08:42:02;;;;;;;8.50;3.45;;;;;;;5.34;100.00;96799.88;5079426;28;20040;-55
2021/12/25 08:44:33;;;;;;;8.95;3.45;;;;;;;5.63;100.00;96808.22;5077076;28;20020;-56
2021/12/25 08:47:00;;;;;;;7.75;3.10;;;;;;;5.03;100.00;96803.63;5078128;28;20072;-56
2021/12/25 08:49:31;;;;;;;6.40;2.67;;;;;;;4.32;100.00;96814.88;5079958;28;20027;-55
2021/12/25 08:51:59;;;;;;;8.20;3.00;;;;;;;4.13;100.00;96812.09;5077829;28;20037;-55
2021/12/25 08:54:24;;;;;;;10.07;3.60;;;;;;;4.18;100.00;96812.78;5076075;28;20016;-54
2021/12/25 08:56:50;;;;;;;7.32;3.05;;;;;;;3.99;100.00;96810.00;5092893;27;20043;-57
2021/12/25 08:59:15;;;;;;;6.95;2.50;;;;;;;4.24;100.00;96822.88;5076139;28;20070;-55
2021/12/25 09:01:41;;;;;;;7.40;2.65;;;;;;;3.96;100.00;96823.81;5078681;28;20032;-56
2021/12/25 09:04:06;;;;;;;6.55;2.42;;;;;;;3.89;100.00;96830.06;5076855;28;20620;-55
2021/12/25 09:06:33;;;;;;;6.68;2.58;;;;;;;4.30;100.00;96821.81;5078258;28;20609;-55
2021/12/25 09:08:58;;;;;;;7.53;2.58;;;;;;;4.44;100.00;96830.75;5079683;28;20027;-58
2021/12/25 09:11:24;;;;;;;7.20;2.50;;;;;;;3.98;100.00;96822.03;5072554;28;20044;-54
2021/12/25 09:13:50;;;;;;;6.70;2.70;;;;;;;4.25;100.00;96832.31;5078965;28;20111;-56
2021/12/25 09:16:15;;;;;;;5.13;1.92;;;;;;;3.73;100.00;96826.31;5076061;28;20502;-54
2021/12/25 09:18:41;;;;;;;6.85;2.45;;;;;;;3.75;100.00;96835.69;5078787;28;20036;-55
2021/12/25 09:21:08;;;;;;;7.03;2.50;;;;;;;3.91;100.00;96841.19;5096416;28;20927;-56
2021/12/25 09:23:33;;;;;;;7.13;2.50;;;;;;;3.83;100.00;96848.34;5074409;28;20032;-56
2021/12/25 09:25:59;;;;;;;8.27;2.83;;;;;;;3.65;100.00;96844.59;5078271;28;20064;-56
2021/12/25 09:28:24;;;;;;;6.10;2.55;;;;;;;3.52;100.00;96841.56;5077804;28;20647;-54
2021/12/25 09:30:49;;;;;;;8.77;3.22;;;;;;;3.46;100.00;96844.34;5076297;28;20040;-54
2021/12/25 09:33:15;;;;;;;11.40;3.15;;;;;;;3.66;100.00;96842.00;5078610;28;20166;-55
2021/12/25 09:35:42;;;;;;;6.47;2.65;;;;;;;3.54;100.00;96841.53;5083918;28;20098;-56
2021/12/25 09:38:08;;;;;;;8.18;3.00;;;;;;;3.50;100.00;96845.94;5074844;28;20047;-55
2021/12/25 09:40:34;;;;;;;6.13;2.42;;;;;;;3.59;100.00;96840.50;5072138;28;20036;-55
2021/12/25 09:42:59;;;;;;;8.57;2.97;;;;;;;3.52;100.00;96840.75;5077814;28;20319;-57
2021/12/25 09:45:24;;;;;;;6.43;2.58;;;;;;;3.37;100.00;96860.09;5076106;28;20426;-55
2021/12/25 09:47:50;;;;;;;9.55;3.35;;;;;;;3.61;100.00;96854.19;5081193;28;20031;-54
2021/12/25 09:50:16;;;;;;;9.90;3.40;;;;;;;4.68;100.00;96850.63;5076480;28;20032;-56
2021/12/25 09:52:42;;;;;;;9.80;3.97;;;;;;;3.99;100.00;96853.84;5076739;28;20023;-57
2021/12/25 09:55:11;;;;;;;7.38;2.70;;;;;;;3.50;100.00;96865.72;5080239;28;20497;-56
2021/12/25 09:57:36;;;;;;;7.63;3.00;;;;;;;3.11;100.00;96864.31;5081078;28;20070;-56
2021/12/25 10:00:11;;;;;;;7.45;2.90;;;;;;;3.36;100.00;96864.41;5082514;28;20031;-55
2021/12/25 10:02:52;;;;;;;7.22;3.00;;;;;;;3.10;100.00;96867.75;5084198;28;20035;-59
2021/12/25 10:05:28;;;;;;;8.02;3.10;;;;;;;3.09;100.00;96861.78;5084449;28;20020;-55
2021/12/25 10:08:13;;;;;;;11.32;3.40;;;;;;;3.06;100.00;96868.75;5081317;28;20500;-57
2021/12/25 10:10:59;;;;;;;8.57;3.30;;;;;;;3.19;100.00;96870.06;5079601;28;20047;-56
2021/12/25 10:13:35;;;;;;;8.45;3.20;;;;;;;3.13;100.00;96867.69;5082617;28;20042;-56
2021/12/25 10:16:23;;;;;;;9.98;3.00;;;;;;;3.09;100.00;96860.94;5079472;28;20046;-55
2021/12/25 10:18:50;;;;;;;8.68;3.08;;;;;;;3.05;100.00;96867.03;5078611;28;20031;-57
2021/12/25 10:21:23;;;;;;;8.65;3.22;;;;;;;2.65;100.00;96870.78;5080544;28;20051;-54
2021/12/25 10:24:11;;;;;;;9.00;3.35;;;;;;;2.78;100.00;96873.84;5077878;28;20024;-55
2021/12/25 10:26:38;;;;;;;8.77;3.13;;;;;;;2.91;100.00;96876.91;5085814;28;20109;-57
2021/12/25 10:29:18;;;;;;;8.20;3.00;;;;;;;2.82;100.00;96878.84;5077746;28;20040;-55
2021/12/25 10:31:44;;;;;;;8.60;2.80;;;;;;;2.36;100.00;96880.09;5080684;28;20058;-55
2021/12/25 10:34:18;;;;;;;8.80;3.10;;;;;;;2.62;100.00;96876.00;5081387;28;20416;-54
2021/12/25 10:36:44;;;;;;;9.32;2.95;;;;;;;2.48;100.00;96882.38;5076677;28;20047;-55
2021/12/25 10:39:11;;;;;;;13.40;3.28;;;;;;;2.55;100.00;96879.63;5082071;28;20020;-54
2021/12/25 10:41:50;;;;;;;9.35;3.70;;;;;;;2.39;100.00;96874.88;5086430;28;20059;-55
2021/12/25 10:44:22;;;;;;;8.55;3.20;;;;;;;2.62;100.00;96871.69;5083788;28;20039;-56
2021/12/25 10:46:58;;;;;;;7.43;2.97;;;;;;;2.43;100.00;96866.19;5080862;28;20048;-58
2021/12/25 10:49:30;;;;;;;6.40;2.92;;;;;;;2.49;100.00;96866.03;5079513;28;20645;-56
2021/12/25 10:52:08;;;;;;;8.35;3.63;;;;;;;2.43;100.00;96868.78;5077626;28;20036;-54
2021/12/25 10:54:37;;;;;;;7.70;3.20;;;;;;;2.38;100.00;96870.63;5081988;28;20031;-54
2021/12/25 10:57:03;;;;;;;10.77;3.75;;;;;;;2.30;100.00;96875.13;5081309;28;20460;-55
2021/12/25 10:59:45;;;;;;;10.18;3.63;;;;;;;2.63;100.00;96863.09;5078446;28;20039;-57
2021/12/25 11:02:27;;;;;;;9.50;4.25;;;;;;;2.19;100.00;96861.69;5075422;28;20042;-54
2021/12/25 11:04:52;;;;;;;11.25;4.30;;;;;;;2.06;100.00;96864.59;5077173;28;20022;-57
2021/12/25 11:07:18;;;;;;;8.32;3.60;;;;;;;2.23;100.00;96861.56;5083138;28;20032;-54
2021/12/25 11:10:07;;;;;;;11.15;4.30;;;;;;;2.39;100.00;96858.59;5081232;28;20036;-54
2021/12/25 11:12:34;;;;;;;10.48;4.30;;;;;;;2.29;100.00;96858.00;5082041;28;20164;-56
2021/12/25 11:15:30;;;;;;;11.55;4.68;;;;;;;2.53;100.00;96858.22;5079283;28;20028;-56
2021/12/25 11:18:05;;;;;;;7.38;3.40;;;;;;;2.49;100.00;96860.88;5080831;28;20038;-55
2021/12/25 11:20:39;;;;;;;12.60;4.07;;;;;;;2.25;100.00;96853.81;5078789;28;20101;-55
2021/12/25 11:23:08;;;;;;;7.45;3.50;;;;;;;2.31;100.00;96848.50;5066473;28;20024;-56
2021/12/25 11:25:35;;;;;;;11.05;4.47;;;;;;;2.40;100.00;96861.13;5077256;28;20036;-55
2021/12/25 11:28:02;;;;;;;9.38;3.75;;;;;;;2.29;100.00;96852.84;5081324;28;20028;-55
2021/12/25 11:30:32;;;;;;;10.45;4.57;;;;;;;2.30;100.00;96859.69;5083080;28;20051;-55
2021/12/25 11:32:58;;;;;;;8.75;3.90;;;;;;;2.25;100.00;96866.69;5077618;28;20023;-55
2021/12/25 11:35:24;;;;;;;9.05;3.63;;;;;;;2.32;100.00;96868.22;5075400;28;20035;-57
2021/12/25 11:37:52;;;;;;;11.50;5.05;;;;;;;2.38;100.00;96860.31;5081776;28;20019;-55
2021/12/25 11:40:23;;;;;;;8.73;4.28;;;;;;;2.32;100.00;96852.78;5078682;28;20032;-56
2021/12/25 11:42:53;;;;;;;9.50;4.05;;;;;;;2.10;100.00;96845.59;5078210;28;20075;-55
2021/12/25 11:45:27;;;;;;;10.10;4.22;;;;;;;2.31;100.00;96856.22;5080983;28;20028;-54
2021/12/25 11:47:58;;;;;;;8.50;4.22;;;;;;;2.20;100.00;96853.91;5079517;28;20023;-56
2021/12/25 11:50:33;;;;;;;10.15;4.43;;;;;;;2.43;100.00;96871.34;5069105;28;20883;-55
2021/12/25 11:53:16;;;;;;;9.15;3.92;;;;;;;2.19;100.00;96857.41;5078599;28;20030;-55
2021/12/25 11:56:14;;;;;;;11.68;4.80;;;;;;;2.06;100.00;96862.00;5081502;28;20046;-57
2021/12/25 11:58:39;;;;;;;;;;;;;;;1.99;100.00;96860.47;5080219;28;20515;-55
2021/12/25 12:01:38;;;;;;;12.23;4.95;;;;;;;2.28;100.00;96858.91;5080425;28;20399;-55
2021/12/25 12:04:12;;;;;;;11.43;4.97;;;;;;;2.38;100.00;96857.75;5081475;28;20040;-56
2021/12/25 12:06:46;;;;;;;10.55;4.38;;;;;;;2.58;100.00;96869.25;5079515;28;20048;-57
2021/12/25 12:09:15;;;;;;;10.85;4.85;;;;;;;2.58;100.00;96861.53;5077611;28;20031;-57
2021/12/25 12:11:44;;;;;;;7.03;2.97;;;;;;;2.34;100.00;96863.88;5075940;28;20046;-55
2021/12/25 12:14:23;;;;;;;10.10;4.72;;;;;;;2.41;100.00;96862.81;5081137;28;20038;-55
2021/12/25 12:16:55;;;;;;;8.95;4.28;;;;;;;2.42;100.00;96867.06;5075663;28;20405;-56
2021/12/25 12:19:29;;;;;;;9.07;3.35;;;;;;;2.47;100.00;96867.78;5079077;28;20016;-55
2021/12/25 12:21:56;;;;;;;10.43;4.40;;;;;;;2.33;100.00;96869.88;5078742;28;20045;-54
2021/12/25 12:27:04;;;;;;;9.75;4.00;;;;;;;2.50;100.00;96870.28;5080099;28;20039;-54
2021/12/25 12:29:38;;;;;;;8.30;4.05;;;;;;;2.20;100.00;96881.38;5079975;28;20054;-56
2021/12/25 12:32:26;;;;;;;8.70;3.65;;;;;;;2.29;100.00;96888.88;5079179;28;20036;-55
2021/12/25 12:34:53;;;;;;;7.80;3.22;;;;;;;2.19;100.00;96888.28;5077524;28;20027;-54
2021/12/25 12:37:21;;;;;;;10.82;4.72;;;;;;;2.11;100.00;96879.88;5074026;28;20037;-54
2021/12/25 12:39:57;;;;;;;9.23;4.13;;;;;;;2.27;100.00;96876.03;5078399;28;20023;-54
2021/12/25 12:42:41;;;;;;;9.30;4.18;;;;;;;2.21;100.00;96891.66;5075334;28;20124;-55
2021/12/25 12:45:13;;;;;;;7.57;3.47;;;;;;;2.36;100.00;96882.69;5076739;28;20036;-55